createdAt,value
2023-01-09T00:01:29.951Z,73.15
2023-01-09T00:03:56.890Z,73.27
2023-01-09T00:06:23.994Z,73.26
2023-01-09T00:08:50.858Z,72.78
2023-01-09T00:11:17.987Z,73.11
2023-01-09T00:13:44.955Z,72.85
2023-01-09T00:16:11.764Z,73.16
2023-01-09T00:18:38.990Z,73.31
2023-01-09T00:21:09.139Z,73.49
2023-01-09T00:23:36.432Z,73.61
2023-01-09T00:26:08.760Z,73.29
2023-01-09T00:28:36.300Z,73.21
2023-01-09T00:31:05.193Z,72.84
2023-01-09T00:33:44.980Z,72.59
2023-01-09T00:36:12.142Z,72.50
2023-01-09T00:38:39.630Z,73.09
2023-01-09T00:41:10.386Z,74.12
2023-01-09T00:43:44.521Z,73.80
2023-01-09T00:46:11.956Z,73.34
2023-01-09T00:48:41.585Z,73.14
2023-01-09T00:51:08.725Z,73.52
2023-01-09T00:53:38.166Z,73.61
2023-01-09T00:56:10.408Z,73.17
2023-01-09T00:58:37.670Z,73.69
2023-01-09T01:01:05.720Z,73.90
2023-01-09T01:03:32.750Z,73.07
2023-01-09T01:06:17.931Z,73.38
2023-01-09T01:08:46.232Z,73.46
2023-01-09T01:11:13.302Z,73.41
2023-01-09T01:13:41.871Z,73.59
2023-01-09T01:16:12.259Z,73.71
2023-01-09T01:18:39.597Z,73.70
2023-01-09T01:21:12.534Z,73.75
2023-01-09T01:23:39.933Z,74.10
2023-01-09T01:26:11.414Z,73.91
2023-01-09T01:28:39.152Z,73.72
2023-01-09T01:31:06.496Z,73.82
2023-01-09T01:33:35.913Z,73.87
2023-01-09T01:36:06.257Z,73.71
2023-01-09T01:38:33.796Z,73.54
2023-01-09T01:41:02.332Z,74.01
2023-01-09T01:43:51.885Z,74.04
2023-01-09T01:46:19.326Z,73.78
2023-01-09T01:48:50.368Z,73.71
2023-01-09T01:51:18.865Z,73.87
2023-01-09T01:53:53.991Z,73.85
2023-01-09T01:56:35.320Z,74.33
2023-01-09T01:59:13.504Z,74.06
2023-01-09T02:01:45.508Z,74.07
2023-01-09T02:04:12.946Z,74.27
2023-01-09T02:06:40.324Z,74.61
2023-01-09T02:09:08.721Z,77.10
2023-01-09T02:11:35.564Z,76.11
2023-01-09T02:14:02.898Z,75.96
2023-01-09T02:16:48.878Z,75.55
2023-01-09T02:19:33.622Z,75.25
2023-01-09T02:22:53.874Z,75.05
2023-01-09T02:25:52.397Z,74.95
2023-01-09T02:28:57.005Z,74.83
2023-01-09T02:31:35.614Z,74.43
2023-01-09T02:34:21.090Z,74.10
2023-01-09T02:37:01.747Z,74.18
2023-01-09T02:39:44.296Z,74.64
2023-01-09T02:42:21.685Z,75.07
2023-01-09T02:44:48.553Z,74.89
2023-01-09T02:47:15.219Z,74.86
2023-01-09T02:49:54.158Z,75.14
2023-01-09T02:53:07.667Z,74.92
2023-01-09T02:55:53.167Z,75.22
2023-01-09T02:58:50.423Z,74.73
2023-01-09T03:01:27.448Z,74.76
2023-01-09T03:04:19.217Z,74.72
2023-01-09T03:06:48.270Z,74.63
2023-01-09T03:09:20.284Z,74.64
2023-01-09T03:12:00.205Z,74.73
2023-01-09T03:14:30.531Z,74.48
2023-01-09T03:17:04.220Z,74.69
2023-01-09T03:19:33.355Z,74.13
2023-01-09T03:22:00.307Z,74.40
2023-01-09T03:24:27.255Z,74.76
2023-01-09T03:26:56.758Z,75.04
2023-01-09T03:29:23.583Z,75.23
2023-01-09T03:31:51.579Z,74.71
2023-01-09T03:34:18.453Z,74.34
2023-01-09T03:36:45.334Z,74.40
2023-01-09T03:39:12.262Z,75.07
2023-01-09T03:41:39.054Z,75.17
2023-01-09T03:44:05.847Z,75.33
2023-01-09T03:46:32.655Z,75.45
2023-01-09T03:48:59.480Z,75.61
2023-01-09T03:51:26.343Z,75.73
2023-01-09T03:53:53.195Z,75.64
2023-01-09T03:56:20.339Z,75.21
2023-01-09T03:58:50.012Z,75.22
2023-01-09T04:01:16.941Z,75.34
2023-01-09T04:03:43.797Z,75.11
2023-01-09T04:06:10.608Z,75.61
2023-01-09T04:08:37.444Z,75.32
2023-01-09T04:11:04.300Z,75.40
2023-01-09T04:13:31.182Z,75.54
2023-01-09T04:15:58.063Z,75.18
2023-01-09T04:18:24.946Z,75.37
2023-01-09T04:20:52.135Z,75.50
2023-01-09T04:23:19.882Z,75.78
2023-01-09T04:25:47.670Z,76.00
2023-01-09T04:28:14.507Z,75.88
2023-01-09T04:30:41.333Z,75.78
2023-01-09T04:33:08.129Z,76.09
2023-01-09T04:35:34.971Z,76.37
2023-01-09T04:38:01.912Z,75.96
2023-01-09T04:40:28.710Z,76.39
2023-01-09T04:42:55.577Z,76.26
2023-01-09T04:45:22.466Z,76.17
2023-01-09T04:47:49.367Z,76.26
2023-01-09T04:50:16.382Z,76.22
2023-01-09T04:52:43.326Z,76.66
2023-01-09T04:55:10.580Z,76.40
2023-01-09T04:57:37.831Z,76.70
2023-01-09T05:00:09.783Z,76.81
2023-01-09T05:02:37.395Z,76.76
2023-01-09T05:05:06.441Z,76.74
2023-01-09T05:07:33.710Z,76.57
2023-01-09T05:10:01.311Z,76.78
2023-01-09T05:12:28.148Z,76.97
2023-01-09T05:14:54.988Z,76.98
2023-01-09T05:17:21.841Z,76.89
2023-01-09T05:19:48.629Z,77.17
2023-01-09T05:22:15.558Z,78.26
2023-01-09T05:24:42.495Z,77.88
2023-01-09T05:27:09.339Z,78.53
2023-01-09T05:29:36.163Z,78.85
2023-01-09T05:32:02.990Z,78.54
2023-01-09T05:34:29.971Z,78.30
2023-01-09T05:36:56.793Z,77.84
2023-01-09T05:39:23.626Z,77.57
2023-01-09T05:41:50.424Z,78.72
2023-01-09T05:44:17.323Z,78.06
2023-01-09T05:46:44.404Z,77.32
2023-01-09T05:49:11.794Z,77.83
2023-01-09T05:51:38.626Z,77.11
2023-01-09T05:54:07.385Z,76.03
2023-01-09T05:56:34.299Z,76.09
2023-01-09T05:59:01.294Z,75.46
2023-01-09T06:01:28.330Z,75.43
2023-01-09T06:03:55.278Z,75.43
2023-01-09T06:06:24.058Z,75.98
2023-01-09T06:08:51.013Z,75.83
2023-01-09T06:11:17.891Z,76.19
2023-01-09T06:13:44.928Z,75.33
2023-01-09T06:16:13.818Z,76.30
2023-01-09T06:18:40.775Z,75.63
2023-01-09T06:21:07.655Z,75.02
2023-01-09T06:23:34.485Z,74.27
2023-01-09T06:26:01.454Z,76.18
2023-01-09T06:28:28.276Z,75.77
2023-01-09T06:30:55.112Z,75.84
2023-01-09T06:33:22.003Z,75.41
2023-01-09T06:35:48.979Z,74.22
2023-01-09T06:38:15.833Z,74.48
2023-01-09T06:40:42.631Z,74.43
2023-01-09T06:43:09.487Z,75.72
2023-01-09T06:45:36.357Z,74.52
2023-01-09T06:48:03.211Z,74.39
2023-01-09T06:50:30.224Z,74.51
2023-01-09T06:52:57.108Z,74.04
2023-01-09T06:55:23.943Z,74.86
2023-01-09T06:57:50.738Z,74.12
2023-01-09T07:00:18.381Z,73.85
2023-01-09T07:02:45.343Z,72.46
2023-01-09T07:05:12.658Z,71.59
2023-01-09T07:07:41.140Z,71.34
2023-01-09T07:10:09.722Z,71.53
2023-01-09T07:12:36.675Z,72.88
2023-01-09T07:15:03.982Z,72.30
2023-01-09T07:17:30.831Z,72.70
2023-01-09T07:19:57.661Z,72.59
2023-01-09T07:22:24.531Z,73.49
2023-01-09T07:24:51.371Z,74.70
2023-01-09T07:27:18.195Z,74.37
2023-01-09T07:29:45.014Z,74.40
2023-01-09T07:32:11.853Z,75.71
2023-01-09T07:34:38.669Z,75.46
2023-01-09T07:37:05.490Z,75.17
2023-01-09T07:39:32.347Z,74.56
2023-01-09T07:41:59.227Z,74.87
2023-01-09T07:44:26.126Z,74.74
2023-01-09T07:46:52.979Z,74.52
2023-01-09T07:49:19.835Z,74.98
2023-01-09T07:51:48.299Z,75.43
2023-01-09T07:54:15.227Z,75.80
2023-01-09T07:56:42.198Z,75.34
2023-01-09T07:59:09.071Z,74.93
2023-01-09T08:01:36.044Z,74.17
2023-01-09T08:04:03.369Z,73.38
2023-01-09T08:06:31.471Z,73.51
2023-01-09T08:09:00.152Z,73.35
2023-01-09T08:11:27.276Z,73.34
2023-01-09T08:13:54.150Z,72.53
2023-01-09T08:16:20.954Z,72.17
2023-01-09T08:18:47.845Z,71.58
2023-01-09T08:21:14.794Z,71.43
2023-01-09T08:23:41.750Z,71.42
2023-01-09T08:26:08.722Z,70.88
2023-01-09T08:28:35.576Z,70.20
2023-01-09T08:31:02.445Z,70.34
2023-01-09T08:33:29.731Z,70.45
2023-01-09T08:35:56.651Z,70.54
2023-01-09T08:38:23.449Z,69.75
2023-01-09T08:40:50.346Z,69.65
2023-01-09T08:43:35.722Z,68.79
2023-01-09T08:46:36.594Z,68.64
2023-01-09T08:49:03.446Z,68.75
2023-01-09T08:51:30.369Z,67.48
2023-01-09T08:53:57.153Z,67.93
2023-01-09T08:56:24.006Z,67.26
2023-01-09T08:58:50.885Z,67.00
2023-01-09T09:01:17.820Z,66.20
2023-01-09T09:03:44.666Z,66.71
2023-01-09T09:06:11.511Z,66.63
2023-01-09T09:08:38.644Z,67.39
2023-01-09T09:11:05.700Z,67.29
2023-01-09T09:13:32.641Z,66.87
2023-01-09T09:15:59.543Z,66.44
2023-01-09T09:18:26.455Z,67.18
2023-01-09T09:20:53.238Z,67.98
2023-01-09T09:23:20.164Z,68.77
2023-01-09T09:25:47.056Z,68.47
2023-01-09T09:28:13.902Z,68.52
2023-01-09T09:30:40.994Z,69.04
2023-01-09T09:33:07.816Z,68.09
2023-01-09T09:35:35.087Z,68.96
2023-01-09T09:38:05.368Z,68.61
2023-01-09T09:41:30.858Z,67.94
2023-01-09T09:44:52.614Z,67.15
2023-01-09T09:47:37.980Z,66.72
2023-01-09T09:50:29.096Z,65.73
2023-01-09T09:53:26.258Z,66.33
2023-01-09T09:55:53.416Z,65.10
2023-01-09T09:58:37.767Z,63.70
2023-01-09T10:01:06.053Z,62.91
2023-01-09T10:03:45.577Z,61.69
2023-01-09T10:06:32.543Z,61.67
2023-01-09T10:09:24.857Z,60.46
2023-01-09T10:12:06.955Z,60.89
2023-01-09T10:14:34.000Z,59.76
2023-01-09T10:17:36.227Z,60.55
2023-01-09T10:20:26.096Z,59.82
2023-01-09T10:23:36.078Z,60.35
2023-01-09T10:26:27.960Z,60.00
2023-01-09T10:29:09.581Z,61.01
2023-01-09T10:31:47.378Z,60.75
2023-01-09T10:34:34.518Z,60.95
2023-01-09T10:37:13.351Z,60.56
2023-01-09T10:39:54.195Z,60.08
2023-01-09T10:42:45.015Z,60.90
2023-01-09T10:45:30.372Z,60.96
2023-01-09T10:48:14.905Z,60.97
2023-01-09T10:50:45.998Z,61.99
2023-01-09T10:53:35.827Z,61.35
2023-01-09T10:56:27.988Z,62.00
2023-01-09T10:58:56.539Z,62.14
2023-01-09T11:01:32.818Z,61.42
2023-01-09T11:04:01.738Z,60.78
2023-01-09T11:06:58.777Z,61.31
2023-01-09T11:09:25.668Z,60.12
2023-01-09T11:11:52.873Z,60.79
2023-01-09T11:14:30.978Z,60.40
2023-01-09T11:17:03.915Z,60.62
2023-01-09T11:19:33.470Z,61.22
2023-01-09T11:22:17.559Z,60.78
2023-01-09T11:24:44.842Z,60.62
2023-01-09T11:27:23.301Z,60.28
2023-01-09T11:30:29.117Z,59.60
2023-01-09T11:32:58.273Z,59.89
2023-01-09T11:35:34.188Z,59.49
2023-01-09T11:38:17.110Z,59.80
2023-01-09T11:40:51.781Z,57.92
2023-01-09T11:43:30.631Z,57.59
2023-01-09T11:46:01.936Z,58.19
2023-01-09T11:48:43.455Z,58.02
2023-01-09T11:51:24.206Z,58.02
2023-01-09T11:54:27.784Z,58.92
2023-01-09T11:56:55.987Z,57.34
2023-01-09T11:59:29.038Z,57.92
2023-01-09T12:02:34.913Z,58.53
2023-01-09T12:05:44.718Z,57.86
2023-01-09T12:08:30.155Z,57.43
2023-01-09T12:11:14.952Z,57.41
2023-01-09T12:14:16.127Z,56.45
2023-01-09T12:17:04.393Z,56.13
2023-01-09T12:20:17.729Z,56.68
2023-01-09T12:22:54.034Z,56.75
2023-01-09T12:25:53.557Z,56.94
2023-01-09T12:28:48.095Z,56.61
2023-01-09T12:31:36.696Z,55.52
2023-01-09T12:34:25.309Z,54.83
2023-01-09T12:37:17.985Z,54.69
2023-01-09T12:40:24.022Z,54.00
2023-01-09T12:43:29.486Z,54.53
2023-01-09T12:46:20.016Z,54.29
2023-01-09T12:49:26.723Z,54.59
2023-01-09T12:52:23.349Z,55.35
2023-01-09T12:55:21.035Z,54.87
2023-01-09T12:57:56.149Z,55.71
2023-01-09T13:00:30.406Z,55.96
2023-01-09T13:03:29.080Z,55.56
2023-01-09T13:05:57.572Z,55.76
2023-01-09T13:08:40.917Z,55.08
2023-01-09T13:11:28.987Z,54.38
2023-01-09T13:13:59.983Z,55.28
2023-01-09T13:16:41.547Z,54.18
2023-01-09T13:19:39.465Z,55.39
2023-01-09T13:22:07.695Z,54.24
2023-01-09T13:24:39.276Z,54.35
2023-01-09T13:27:13.404Z,55.79
2023-01-09T13:29:50.600Z,54.89
2023-01-09T13:32:57.253Z,55.27
2023-01-09T13:35:24.216Z,55.75
2023-01-09T13:37:52.903Z,55.07
2023-01-09T13:40:19.649Z,55.45
2023-01-09T13:43:03.575Z,55.39
2023-01-09T13:45:37.074Z,55.10
2023-01-09T13:48:11.025Z,54.82
2023-01-09T13:50:43.306Z,55.83
2023-01-09T13:53:19.342Z,55.20
2023-01-09T13:55:58.899Z,56.54
2023-01-09T13:58:33.779Z,56.25
2023-01-09T14:01:05.492Z,56.13
2023-01-09T14:03:36.455Z,55.87
2023-01-09T14:06:11.986Z,56.65
2023-01-09T14:08:41.872Z,57.05
2023-01-09T14:11:10.215Z,56.33
2023-01-09T14:13:44.563Z,55.63
2023-01-09T14:16:20.703Z,55.22
2023-01-09T14:18:59.321Z,55.07
2023-01-09T14:21:26.191Z,54.94
2023-01-09T14:24:06.754Z,54.61
2023-01-09T14:26:45.041Z,55.48
2023-01-09T14:29:35.774Z,54.67
2023-01-09T14:32:21.464Z,54.87
2023-01-09T14:34:54.768Z,55.98
2023-01-09T14:37:21.758Z,55.33
2023-01-09T14:39:50.563Z,55.80
2023-01-09T14:42:24.851Z,55.79
2023-01-09T14:45:06.315Z,56.01
2023-01-09T14:47:48.655Z,56.24
2023-01-09T14:50:47.775Z,56.42
2023-01-09T14:53:21.117Z,56.64
2023-01-09T14:56:01.728Z,56.67
2023-01-09T14:58:36.378Z,57.37
2023-01-09T15:01:23.706Z,56.67
2023-01-09T15:04:06.850Z,56.88
2023-01-09T15:06:37.899Z,56.59
2023-01-09T15:09:07.829Z,56.72
2023-01-09T15:11:39.176Z,57.34
2023-01-09T15:14:07.258Z,57.30
2023-01-09T15:16:34.416Z,57.00
2023-01-09T15:19:07.838Z,57.45
2023-01-09T15:21:34.637Z,57.37
2023-01-09T15:24:34.250Z,58.37
2023-01-09T15:27:15.796Z,58.04
2023-01-09T15:29:42.625Z,57.86
2023-01-09T15:32:29.903Z,59.10
2023-01-09T15:34:57.927Z,58.55
2023-01-09T15:37:38.716Z,58.38
2023-01-09T15:40:21.714Z,58.76
2023-01-09T15:42:57.343Z,59.08
2023-01-09T15:45:38.433Z,59.28
2023-01-09T15:48:34.794Z,59.54
2023-01-09T15:51:18.902Z,59.32
2023-01-09T15:53:53.703Z,59.79
2023-01-09T15:56:30.455Z,60.63
2023-01-09T15:58:59.254Z,61.09
2023-01-09T16:01:40.215Z,61.94
2023-01-09T16:04:16.544Z,61.58
2023-01-09T16:06:49.410Z,61.08
2023-01-09T16:09:30.547Z,61.60
2023-01-09T16:12:01.054Z,61.87
2023-01-09T16:14:39.580Z,62.01
2023-01-09T16:17:13.880Z,62.29
2023-01-09T16:19:50.253Z,62.35
2023-01-09T16:22:33.218Z,61.67
2023-01-09T16:25:28.347Z,61.66
2023-01-09T16:28:23.010Z,62.17
2023-01-09T16:31:01.917Z,62.67
2023-01-09T16:33:31.132Z,61.76
2023-01-09T16:35:59.027Z,62.11
2023-01-09T16:38:26.644Z,62.20
2023-01-09T16:41:27.140Z,62.65
2023-01-09T16:43:53.987Z,61.93
2023-01-09T16:46:21.694Z,61.90
2023-01-09T16:48:48.948Z,61.94
2023-01-09T16:51:22.691Z,63.00
2023-01-09T16:53:50.148Z,63.14
2023-01-09T16:56:24.810Z,63.57
2023-01-09T16:58:54.552Z,63.59
2023-01-09T17:01:22.958Z,63.45
2023-01-09T17:03:50.364Z,63.44
2023-01-09T17:06:29.196Z,63.97
2023-01-09T17:08:56.381Z,63.53
2023-01-09T17:11:32.093Z,64.04
2023-01-09T17:14:03.753Z,64.89
2023-01-09T17:16:30.830Z,64.13
2023-01-09T17:18:57.719Z,64.73
2023-01-09T17:21:28.975Z,63.82
2023-01-09T17:24:14.828Z,63.83
2023-01-09T17:27:04.239Z,63.47
2023-01-09T17:29:31.387Z,64.23
2023-01-09T17:31:58.588Z,63.61
2023-01-09T17:34:25.474Z,63.66
2023-01-09T17:36:55.458Z,63.68
2023-01-09T17:39:23.583Z,63.68
2023-01-09T17:41:50.487Z,63.93
2023-01-09T17:44:17.345Z,64.03
2023-01-09T17:46:45.021Z,64.32
2023-01-09T17:49:20.253Z,63.59
2023-01-09T17:51:47.469Z,64.96
2023-01-09T17:54:14.637Z,64.24
2023-01-09T17:56:47.438Z,64.55
2023-01-09T17:59:15.777Z,64.66
2023-01-09T18:01:44.093Z,64.63
2023-01-09T18:04:11.261Z,64.90
2023-01-09T18:06:38.051Z,65.12
2023-01-09T18:09:05.968Z,64.95
2023-01-09T18:11:33.086Z,64.88
2023-01-09T18:13:59.943Z,64.51
2023-01-09T18:16:28.666Z,65.52
2023-01-09T18:18:58.355Z,64.93
2023-01-09T18:21:27.063Z,65.74
2023-01-09T18:23:54.537Z,65.12
2023-01-09T18:26:22.187Z,65.73
2023-01-09T18:28:52.703Z,65.50
2023-01-09T18:31:23.444Z,65.59
2023-01-09T18:33:56.545Z,65.50
2023-01-09T18:36:29.652Z,65.22
2023-01-09T18:38:59.737Z,65.10
2023-01-09T18:41:27.647Z,65.13
2023-01-09T18:43:57.777Z,64.79
2023-01-09T18:46:26.166Z,64.59
2023-01-09T18:49:00.846Z,65.22
2023-01-09T18:51:29.657Z,65.24
2023-01-09T18:53:56.910Z,65.80
2023-01-09T18:56:24.889Z,65.41
2023-01-09T18:58:58.746Z,65.56
2023-01-09T19:01:30.183Z,65.20
2023-01-09T19:03:59.456Z,64.58
2023-01-09T19:06:28.927Z,64.57
2023-01-09T19:08:58.244Z,64.55
2023-01-09T19:11:25.371Z,64.59
2023-01-09T19:13:52.260Z,64.85
2023-01-09T19:16:19.489Z,64.78
2023-01-09T19:18:46.777Z,65.17
2023-01-09T19:21:19.101Z,64.69
2023-01-09T19:23:48.049Z,66.10
2023-01-09T19:26:23.828Z,65.79
2023-01-09T19:28:55.056Z,66.24
2023-01-09T19:31:24.522Z,65.76
2023-01-09T19:33:53.927Z,65.98
2023-01-09T19:36:22.207Z,66.09
2023-01-09T19:38:49.219Z,65.79
2023-01-09T19:41:19.482Z,65.94
2023-01-09T19:43:47.693Z,65.69
2023-01-09T19:46:22.010Z,66.05
2023-01-09T19:48:50.196Z,66.96
2023-01-09T19:51:19.781Z,66.38
2023-01-09T19:53:58.207Z,66.45
2023-01-09T19:56:31.318Z,66.34
2023-01-09T19:59:02.181Z,66.75
2023-01-09T20:01:38.734Z,66.85
2023-01-09T20:04:13.387Z,67.49
2023-01-09T20:06:47.170Z,67.34
2023-01-09T20:09:17.696Z,67.65
2023-01-09T20:11:44.945Z,67.55
2023-01-09T20:14:16.307Z,67.19
2023-01-09T20:16:43.779Z,67.33
2023-01-09T20:19:13.011Z,67.35
2023-01-09T20:21:40.096Z,68.12
2023-01-09T20:24:08.486Z,67.79
2023-01-09T20:26:37.669Z,68.10
2023-01-09T20:29:04.739Z,67.88
2023-01-09T20:31:32.958Z,68.37
2023-01-09T20:34:00.184Z,68.30
2023-01-09T20:36:30.039Z,68.76
2023-01-09T20:38:59.951Z,68.26
2023-01-09T20:41:29.382Z,69.12
2023-01-09T20:43:59.625Z,69.08
2023-01-09T20:46:30.560Z,69.33
2023-01-09T20:49:06.455Z,69.19
2023-01-09T20:51:41.840Z,69.67
2023-01-09T20:54:09.096Z,69.61
2023-01-09T20:56:39.115Z,69.62
2023-01-09T20:59:14.476Z,69.60
2023-01-09T21:01:41.515Z,70.19
2023-01-09T21:04:08.946Z,69.59
2023-01-09T21:06:36.241Z,70.14
2023-01-09T21:09:05.242Z,70.31
2023-01-09T21:11:32.757Z,70.74
2023-01-09T21:13:59.990Z,72.60
2023-01-09T21:16:27.141Z,72.16
2023-01-09T21:18:55.027Z,72.29
2023-01-09T21:21:27.243Z,72.39
2023-01-09T21:23:58.044Z,71.76
2023-01-09T21:26:28.900Z,72.65
2023-01-09T21:29:00.415Z,72.44
2023-01-09T21:31:34.456Z,71.56
2023-01-09T21:34:07.585Z,72.02
2023-01-09T21:36:35.879Z,72.22
2023-01-09T21:39:07.649Z,72.39
2023-01-09T21:41:53.983Z,72.91
2023-01-09T21:44:39.372Z,72.48
2023-01-09T21:47:06.244Z,71.83
2023-01-09T21:49:35.112Z,71.31
2023-01-09T21:52:05.797Z,71.29
2023-01-09T21:54:33.417Z,70.65
2023-01-09T21:57:01.097Z,70.47
2023-01-09T21:59:29.143Z,70.64
2023-01-09T22:01:56.126Z,70.65
2023-01-09T22:04:27.982Z,70.41
2023-01-09T22:06:55.948Z,70.56
2023-01-09T22:09:23.150Z,71.28
2023-01-09T22:11:49.963Z,71.79
2023-01-09T22:14:18.907Z,70.44
2023-01-09T22:16:46.422Z,71.96
2023-01-09T22:19:14.791Z,71.66
2023-01-09T22:21:41.671Z,71.73
2023-01-09T22:24:11.766Z,72.18
2023-01-09T22:26:38.615Z,71.03
2023-01-09T22:29:05.414Z,71.98
2023-01-09T22:31:34.983Z,72.61
2023-01-09T22:34:02.576Z,72.51
2023-01-09T22:36:31.012Z,72.11
2023-01-09T22:39:00.305Z,72.53
2023-01-09T22:41:29.600Z,72.81
2023-01-09T22:43:56.518Z,72.46
2023-01-09T22:46:23.658Z,72.41
2023-01-09T22:48:50.554Z,71.99
2023-01-09T22:51:20.890Z,72.51
2023-01-09T22:53:48.156Z,72.29
2023-01-09T22:56:20.924Z,72.42
2023-01-09T22:58:53.501Z,72.49
2023-01-09T23:01:21.672Z,72.22
2023-01-09T23:03:48.983Z,72.34
2023-01-09T23:06:21.846Z,72.59
2023-01-09T23:08:51.080Z,71.99
2023-01-09T23:11:47.490Z,71.75
2023-01-09T23:14:14.461Z,71.41
2023-01-09T23:16:41.794Z,71.98
2023-01-09T23:19:09.823Z,71.34
2023-01-09T23:21:37.231Z,71.36
2023-01-09T23:24:06.790Z,71.84
2023-01-09T23:26:34.741Z,71.80
2023-01-09T23:29:02.009Z,71.88
2023-01-09T23:31:28.857Z,71.20
2023-01-09T23:33:55.722Z,71.46
2023-01-09T23:36:22.554Z,72.21
2023-01-09T23:38:49.982Z,72.15
2023-01-09T23:41:16.817Z,73.08
2023-01-09T23:43:44.430Z,72.17
2023-01-09T23:46:14.361Z,72.63
2023-01-09T23:48:41.365Z,72.09
2023-01-09T23:51:08.263Z,72.02
2023-01-09T23:53:35.112Z,72.49
2023-01-09T23:56:02.969Z,73.03
2023-01-09T23:58:29.844Z,72.78
